sensor_id;sensor_type;location;lat;lon;timestamp;pressure;altitude;pressure_sealevel;temperature;humidity
61205;BME280;47068;55.780;37.520;2022-07-06T00:01:10;99806.00;;;19.98;82.75
61205;BME280;47068;55.780;37.520;2022-07-06T00:03:35;99828.13;;;20.06;82.49
61205;BME280;47068;55.780;37.520;2022-07-06T00:06:00;99820.53;;;19.97;82.99
61205;BME280;47068;55.780;37.520;2022-07-06T00:08:26;99827.13;;;20.01;83.25
61205;BME280;47068;55.780;37.520;2022-07-06T00:10:51;99811.47;;;19.85;83.51
61205;BME280;47068;55.780;37.520;2022-07-06T00:13:19;99825.88;;;20.03;83.12
61205;BME280;47068;55.780;37.520;2022-07-06T00:15:44;99825.41;;;20.06;82.89
61205;BME280;47068;55.780;37.520;2022-07-06T00:18:10;99824.59;;;20.06;82.81
61205;BME280;47068;55.780;37.520;2022-07-06T00:20:35;99819.25;;;19.99;82.00
61205;BME280;47068;55.780;37.520;2022-07-06T00:23:01;99818.88;;;19.96;82.01
61205;BME280;47068;55.780;37.520;2022-07-06T00:25:26;99821.78;;;19.94;82.85
61205;BME280;47068;55.780;37.520;2022-07-06T00:27:51;99814.31;;;19.96;82.79
61205;BME280;47068;55.780;37.520;2022-07-06T00:30:17;99802.69;;;19.96;82.76
61205;BME280;47068;55.780;37.520;2022-07-06T00:32:42;99804.75;;;19.94;81.85
61205;BME280;47068;55.780;37.520;2022-07-06T00:35:08;99813.47;;;19.96;82.10
61205;BME280;47068;55.780;37.520;2022-07-06T00:37:33;99810.38;;;19.92;82.68
61205;BME280;47068;55.780;37.520;2022-07-06T00:39:59;99810.38;;;19.92;82.78
61205;BME280;47068;55.780;37.520;2022-07-06T00:42:24;99811.06;;;19.88;82.80
61205;BME280;47068;55.780;37.520;2022-07-06T00:44:50;99808.56;;;19.86;82.77
61205;BME280;47068;55.780;37.520;2022-07-06T00:47:15;99797.34;;;19.89;82.77
61205;BME280;47068;55.780;37.520;2022-07-06T00:49:40;99814.47;;;20.01;81.67
61205;BME280;47068;55.780;37.520;2022-07-06T00:52:25;99813.47;;;19.96;82.38
61205;BME280;47068;55.780;37.520;2022-07-06T00:54:51;99820.53;;;19.97;82.62
61205;BME280;47068;55.780;37.520;2022-07-06T00:57:17;99825.25;;;20.01;81.96
61205;BME280;47068;55.780;37.520;2022-07-06T00:59:43;99826.75;;;19.97;82.99
61205;BME280;47068;55.780;37.520;2022-07-06T01:02:08;99815.72;;;19.99;83.16
61205;BME280;47068;55.780;37.520;2022-07-06T01:04:34;99812.94;;;20.05;82.12
61205;BME280;47068;55.780;37.520;2022-07-06T01:07:00;99811.91;;;20.06;82.11
61205;BME280;47068;55.780;37.520;2022-07-06T01:09:25;99812.81;;;20.00;82.02
61205;BME280;47068;55.780;37.520;2022-07-06T01:11:52;99823.19;;;20.03;82.79
61205;BME280;47068;55.780;37.520;2022-07-06T01:14:18;99822.72;;;20.06;82.82
61205;BME280;47068;55.780;37.520;2022-07-06T01:16:44;99819.63;;;20.03;82.90
61205;BME280;47068;55.780;37.520;2022-07-06T01:19:09;99824.06;;;19.97;82.59
61205;BME280;47068;55.780;37.520;2022-07-06T01:21:37;99820.75;;;19.95;82.45
61205;BME280;47068;55.780;37.520;2022-07-06T01:24:03;99796.72;;;19.87;82.90
61205;BME280;47068;55.780;37.520;2022-07-06T01:26:29;99811.44;;;19.91;82.23
61205;BME280;47068;55.780;37.520;2022-07-06T01:28:55;99821.06;;;20.05;82.45
61205;BME280;47068;55.780;37.520;2022-07-06T01:31:22;99827.00;;;20.14;82.39
61205;BME280;47068;55.780;37.520;2022-07-06T01:33:49;99825.59;;;20.12;82.89
61205;BME280;47068;55.780;37.520;2022-07-06T01:36:15;99829.78;;;20.08;82.82
61205;BME280;47068;55.780;37.520;2022-07-06T01:38:54;99824.38;;;20.08;82.44
61205;BME280;47068;55.780;37.520;2022-07-06T01:41:21;99815.50;;;20.00;82.72
61205;BME280;47068;55.780;37.520;2022-07-06T01:43:47;99817.16;;;20.01;83.11
61205;BME280;47068;55.780;37.520;2022-07-06T01:46:13;99829.78;;;20.08;83.07
61205;BME280;47068;55.780;37.520;2022-07-06T01:48:38;99829.16;;;20.05;83.05
61205;BME280;47068;55.780;37.520;2022-07-06T01:51:04;99823.31;;;20.09;82.60
61205;BME280;47068;55.780;37.520;2022-07-06T01:53:30;99789.84;;;19.91;82.57
61205;BME280;47068;55.780;37.520;2022-07-06T01:55:56;99762.50;;;19.81;82.11
61205;BME280;47068;55.780;37.520;2022-07-06T01:58:21;99835.66;;;20.23;82.03
61205;BME280;47068;55.780;37.520;2022-07-06T02:00:47;99825.81;;;20.10;82.01
61205;BME280;47068;55.780;37.520;2022-07-06T02:03:12;99837.81;;;20.14;82.78
61205;BME280;47068;55.780;37.520;2022-07-06T02:05:38;99836.97;;;20.14;82.44
61205;BME280;47068;55.780;37.520;2022-07-06T02:08:03;99833.38;;;20.20;82.45
61205;BME280;47068;55.780;37.520;2022-07-06T02:10:29;99836.91;;;20.20;81.56
61205;BME280;47068;55.780;37.520;2022-07-06T02:12:54;99844.53;;;20.30;81.95
61205;BME280;47068;55.780;37.520;2022-07-06T02:15:19;99848.22;;;20.35;82.11
61205;BME280;47068;55.780;37.520;2022-07-06T02:17:45;99848.84;;;20.37;81.75
61205;BME280;47068;55.780;37.520;2022-07-06T02:20:10;99848.63;;;20.39;82.19
61205;BME280;47068;55.780;37.520;2022-07-06T02:22:36;99833.09;;;20.28;82.51
61205;BME280;47068;55.780;37.520;2022-07-06T02:25:01;99846.81;;;20.33;82.72
61205;BME280;47068;55.780;37.520;2022-07-06T02:27:27;99844.75;;;20.28;83.09
61205;BME280;47068;55.780;37.520;2022-07-06T02:29:52;99851.44;;;20.26;83.28
61205;BME280;47068;55.780;37.520;2022-07-06T02:32:18;99852.47;;;20.25;83.01
61205;BME280;47068;55.780;37.520;2022-07-06T02:34:43;99851.88;;;20.23;83.15
61205;BME280;47068;55.780;37.520;2022-07-06T02:37:09;99850.81;;;20.24;82.95
61205;BME280;47068;55.780;37.520;2022-07-06T02:39:34;99851.19;;;20.27;82.52
61205;BME280;47068;55.780;37.520;2022-07-06T02:42:00;99857.63;;;20.33;82.93
61205;BME280;47068;55.780;37.520;2022-07-06T02:44:25;99858.03;;;20.30;82.90
61205;BME280;47068;55.780;37.520;2022-07-06T02:46:51;99856.59;;;20.27;82.08
61205;BME280;47068;55.780;37.520;2022-07-06T02:49:16;99834.16;;;20.27;81.73
61205;BME280;47068;55.780;37.520;2022-07-06T02:51:41;99859.19;;;20.40;81.83
61205;BME280;47068;55.780;37.520;2022-07-06T02:54:07;99857.94;;;20.43;82.27
61205;BME280;47068;55.780;37.520;2022-07-06T02:56:32;99861.59;;;20.49;81.04
61205;BME280;47068;55.780;37.520;2022-07-06T02:58:58;99858.00;;;20.55;80.82
61205;BME280;47068;55.780;37.520;2022-07-06T03:01:23;99858.75;;;20.62;81.34
61205;BME280;47068;55.780;37.520;2022-07-06T03:03:48;99837.72;;;20.64;80.79
61205;BME280;47068;55.780;37.520;2022-07-06T03:06:14;99823.84;;;20.78;80.63
61205;BME280;47068;55.780;37.520;2022-07-06T03:08:39;99834.91;;;21.07;79.17
61205;BME280;47068;55.780;37.520;2022-07-06T03:11:05;99830.34;;;21.37;77.24
61205;BME280;47068;55.780;37.520;2022-07-06T03:13:30;99814.38;;;21.47;77.10
61205;BME280;47068;55.780;37.520;2022-07-06T03:15:56;99818.53;;;21.61;76.18
61205;BME280;47068;55.780;37.520;2022-07-06T03:18:22;99811.34;;;21.67;75.47
61205;BME280;47068;55.780;37.520;2022-07-06T03:20:47;99817.38;;;21.69;76.13
61205;BME280;47068;55.780;37.520;2022-07-06T03:23:13;99826.56;;;21.80;76.19
61205;BME280;47068;55.780;37.520;2022-07-06T03:25:38;99823.28;;;21.89;74.14
61205;BME280;47068;55.780;37.520;2022-07-06T03:28:04;99824.63;;;21.98;74.14
61205;BME280;47068;55.780;37.520;2022-07-06T03:30:29;99816.47;;;22.10;72.86
61205;BME280;47068;55.780;37.520;2022-07-06T03:32:54;99823.69;;;22.05;73.30
61205;BME280;47068;55.780;37.520;2022-07-06T03:35:20;99811.19;;;22.04;73.56
61205;BME280;47068;55.780;37.520;2022-07-06T03:37:45;99821.19;;;22.15;72.95
61205;BME280;47068;55.780;37.520;2022-07-06T03:40:11;99830.72;;;22.29;72.28
61205;BME280;47068;55.780;37.520;2022-07-06T03:42:36;99842.63;;;22.39;72.24
61205;BME280;47068;55.780;37.520;2022-07-06T03:45:03;99842.75;;;22.45;72.33
61205;BME280;47068;55.780;37.520;2022-07-06T03:47:29;99839.66;;;22.53;72.67
61205;BME280;47068;55.780;37.520;2022-07-06T03:49:54;99837.06;;;22.58;72.24
61205;BME280;47068;55.780;37.520;2022-07-06T03:52:20;99823.28;;;22.59;71.78
61205;BME280;47068;55.780;37.520;2022-07-06T03:54:45;99832.81;;;22.73;71.63
61205;BME280;47068;55.780;37.520;2022-07-06T03:57:11;99842.22;;;22.83;70.52
61205;BME280;47068;55.780;37.520;2022-07-06T03:59:39;99819.59;;;22.77;70.35
61205;BME280;47068;55.780;37.520;2022-07-06T04:02:04;99836.88;;;22.99;70.31
61205;BME280;47068;55.780;37.520;2022-07-06T04:04:30;99820.59;;;22.99;69.95
61205;BME280;47068;55.780;37.520;2022-07-06T04:06:55;99838.81;;;23.15;69.67
61205;BME280;47068;55.780;37.520;2022-07-06T04:09:21;99835.13;;;23.22;69.36
61205;BME280;47068;55.780;37.520;2022-07-06T04:11:46;99827.16;;;23.32;68.65
61205;BME280;47068;55.780;37.520;2022-07-06T04:14:11;99831.06;;;23.36;68.71
61205;BME280;47068;55.780;37.520;2022-07-06T04:16:37;99824.66;;;23.42;70.24
61205;BME280;47068;55.780;37.520;2022-07-06T04:19:05;99823.59;;;23.43;69.69
61205;BME280;47068;55.780;37.520;2022-07-06T04:21:30;99831.94;;;23.53;69.02
61205;BME280;47068;55.780;37.520;2022-07-06T04:23:56;99824.69;;;23.59;69.41
61205;BME280;47068;55.780;37.520;2022-07-06T04:26:21;99827.50;;;23.64;69.57
61205;BME280;47068;55.780;37.520;2022-07-06T04:28:46;99827.50;;;23.80;69.92
61205;BME280;47068;55.780;37.520;2022-07-06T04:31:12;99808.59;;;23.85;69.12
61205;BME280;47068;55.780;37.520;2022-07-06T04:33:43;99828.81;;;24.28;67.11
61205;BME280;47068;55.780;37.520;2022-07-06T04:36:09;99829.59;;;24.45;66.43
61205;BME280;47068;55.780;37.520;2022-07-06T04:38:35;99821.19;;;24.47;65.82
61205;BME280;47068;55.780;37.520;2022-07-06T04:41:00;99825.44;;;24.59;65.27
61205;BME280;47068;55.780;37.520;2022-07-06T04:43:26;99819.47;;;24.62;64.18
61205;BME280;47068;55.780;37.520;2022-07-06T04:45:51;99811.19;;;24.52;64.73
61205;BME280;47068;55.780;37.520;2022-07-06T04:48:17;99822.34;;;24.72;64.79
61205;BME280;47068;55.780;37.520;2022-07-06T04:50:42;99816.38;;;24.76;66.03
61205;BME280;47068;55.780;37.520;2022-07-06T04:53:08;99814.44;;;24.93;65.41
61205;BME280;47068;55.780;37.520;2022-07-06T04:55:33;99814.69;;;25.13;65.65
61205;BME280;47068;55.780;37.520;2022-07-06T04:57:59;99811.59;;;25.31;63.94
61205;BME280;47068;55.780;37.520;2022-07-06T05:00:24;99813.69;;;25.24;63.25
61205;BME280;47068;55.780;37.520;2022-07-06T05:02:52;99792.91;;;25.13;63.10
61205;BME280;47068;55.780;37.520;2022-07-06T05:05:18;99811.28;;;25.28;63.41
61205;BME280;47068;55.780;37.520;2022-07-06T05:07:43;99816.25;;;25.31;63.09
61205;BME280;47068;55.780;37.520;2022-07-06T05:10:10;99809.59;;;25.48;61.78
61205;BME280;47068;55.780;37.520;2022-07-06T05:12:36;99804.31;;;25.64;60.59
61205;BME280;47068;55.780;37.520;2022-07-06T05:15:02;99801.16;;;25.77;60.01
61205;BME280;47068;55.780;37.520;2022-07-06T05:17:28;99796.31;;;25.89;59.14
61205;BME280;47068;55.780;37.520;2022-07-06T05:19:54;99809.47;;;25.97;60.06
61205;BME280;47068;55.780;37.520;2022-07-06T05:22:22;99802.91;;;25.93;57.83
61205;BME280;47068;55.780;37.520;2022-07-06T05:24:47;99795.88;;;26.02;60.25
61205;BME280;47068;55.780;37.520;2022-07-06T05:27:13;99797.84;;;26.12;58.75
61205;BME280;47068;55.780;37.520;2022-07-06T05:29:38;99802.00;;;26.19;58.07
61205;BME280;47068;55.780;37.520;2022-07-06T05:32:04;99795.78;;;26.29;58.46
61205;BME280;47068;55.780;37.520;2022-07-06T05:34:29;99802.50;;;26.63;56.65
61205;BME280;47068;55.780;37.520;2022-07-06T05:36:55;99790.97;;;27.14;54.00
61205;BME280;47068;55.780;37.520;2022-07-06T05:39:20;99786.91;;;27.47;52.21
61205;BME280;47068;55.780;37.520;2022-07-06T05:41:48;99794.03;;;27.73;52.93
61205;BME280;47068;55.780;37.520;2022-07-06T05:44:13;99792.41;;;27.92;52.20
61205;BME280;47068;55.780;37.520;2022-07-06T05:46:39;99793.72;;;28.40;49.45
61205;BME280;47068;55.780;37.520;2022-07-06T05:49:05;99788.66;;;28.83;47.59
61205;BME280;47068;55.780;37.520;2022-07-06T05:51:49;99789.38;;;29.43;46.89
61205;BME280;47068;55.780;37.520;2022-07-06T05:54:15;99783.25;;;29.56;44.97
61205;BME280;47068;55.780;37.520;2022-07-06T05:56:40;99795.00;;;29.61;44.49
61205;BME280;47068;55.780;37.520;2022-07-06T05:59:06;99789.28;;;29.58;45.55
61205;BME280;47068;55.780;37.520;2022-07-06T06:01:31;99787.00;;;29.31;44.66
61205;BME280;47068;55.780;37.520;2022-07-06T06:03:57;99791.38;;;28.83;43.80
61205;BME280;47068;55.780;37.520;2022-07-06T06:06:24;99788.94;;;28.76;45.16
61205;BME280;47068;55.780;37.520;2022-07-06T06:08:50;99781.47;;;28.92;45.77
61205;BME280;47068;55.780;37.520;2022-07-06T06:11:15;99790.81;;;29.30;44.61
61205;BME280;47068;55.780;37.520;2022-07-06T06:13:41;99784.63;;;29.92;42.94
61205;BME280;47068;55.780;37.520;2022-07-06T06:16:06;99786.88;;;30.38;40.92
61205;BME280;47068;55.780;37.520;2022-07-06T06:18:32;99786.84;;;30.85;42.51
61205;BME280;47068;55.780;37.520;2022-07-06T06:20:57;99781.25;;;31.33;41.68
61205;BME280;47068;55.780;37.520;2022-07-06T06:23:23;99782.22;;;31.42;38.71
61205;BME280;47068;55.780;37.520;2022-07-06T06:25:48;99783.25;;;31.27;38.25
61205;BME280;47068;55.780;37.520;2022-07-06T06:28:13;99774.72;;;31.29;40.14
61205;BME280;47068;55.780;37.520;2022-07-06T06:30:39;99778.16;;;31.53;39.80
61205;BME280;47068;55.780;37.520;2022-07-06T06:35:33;99768.63;;;31.97;39.61
61205;BME280;47068;55.780;37.520;2022-07-06T06:37:59;99761.88;;;32.22;38.82
61205;BME280;47068;55.780;37.520;2022-07-06T06:40:24;99771.03;;;32.85;38.16
61205;BME280;47068;55.780;37.520;2022-07-06T06:42:50;99770.47;;;33.47;37.00
61205;BME280;47068;55.780;37.520;2022-07-06T06:45:15;99759.72;;;34.21;35.20
61205;BME280;47068;55.780;37.520;2022-07-06T06:47:41;99758.19;;;35.11;32.91
61205;BME280;47068;55.780;37.520;2022-07-06T06:50:07;99756.63;;;36.08;31.26
61205;BME280;47068;55.780;37.520;2022-07-06T06:52:32;99753.34;;;36.82;29.32
61205;BME280;47068;55.780;37.520;2022-07-06T06:54:58;99764.34;;;37.53;29.02
61205;BME280;47068;55.780;37.520;2022-07-06T06:57:23;99749.63;;;38.06;28.73
61205;BME280;47068;55.780;37.520;2022-07-06T06:59:48;99767.34;;;38.99;27.02
61205;BME280;47068;55.780;37.520;2022-07-06T07:02:14;99767.28;;;39.51;26.83
61205;BME280;47068;55.780;37.520;2022-07-06T07:04:40;99755.53;;;39.58;26.30
61205;BME280;47068;55.780;37.520;2022-07-06T07:07:05;99759.66;;;39.08;25.50
61205;BME280;47068;55.780;37.520;2022-07-06T07:09:31;99758.09;;;38.71;26.46
61205;BME280;47068;55.780;37.520;2022-07-06T07:11:56;99745.09;;;38.14;27.22
61205;BME280;47068;55.780;37.520;2022-07-06T07:14:23;99758.00;;;36.90;28.95
61205;BME280;47068;55.780;37.520;2022-07-06T07:16:48;99755.38;;;36.64;30.08
61205;BME280;47068;55.780;37.520;2022-07-06T07:19:13;99740.78;;;36.17;30.33
61205;BME280;47068;55.780;37.520;2022-07-06T07:21:39;99759.72;;;35.98;31.68
61205;BME280;47068;55.780;37.520;2022-07-06T07:24:05;99753.59;;;35.84;32.25
61205;BME280;47068;55.780;37.520;2022-07-06T07:26:30;99748.78;;;36.19;30.32
61205;BME280;47068;55.780;37.520;2022-07-06T07:28:56;99742.44;;;36.77;28.92
61205;BME280;47068;55.780;37.520;2022-07-06T07:31:22;99739.50;;;37.24;29.37
61205;BME280;47068;55.780;37.520;2022-07-06T07:33:47;99757.19;;;37.52;29.42
61205;BME280;47068;55.780;37.520;2022-07-06T07:36:13;99747.69;;;37.74;29.14
61205;BME280;47068;55.780;37.520;2022-07-06T07:38:38;99753.88;;;38.89;27.66
61205;BME280;47068;55.780;37.520;2022-07-06T07:41:04;99757.00;;;40.27;24.42
61205;BME280;47068;55.780;37.520;2022-07-06T07:43:31;99746.81;;;41.39;23.59
61205;BME280;47068;55.780;37.520;2022-07-06T07:45:56;99738.66;;;42.15;22.12
61205;BME280;47068;55.780;37.520;2022-07-06T07:48:22;99737.28;;;42.28;22.39
61205;BME280;47068;55.780;37.520;2022-07-06T07:50:47;99740.22;;;42.12;22.97
61205;BME280;47068;55.780;37.520;2022-07-06T07:53:13;99741.19;;;42.99;21.65
61205;BME280;47068;55.780;37.520;2022-07-06T07:55:38;99742.56;;;43.82;20.59
61205;BME280;47068;55.780;37.520;2022-07-06T07:58:04;99747.50;;;44.37;19.48
61205;BME280;47068;55.780;37.520;2022-07-06T08:00:29;99747.50;;;44.37;20.30
61205;BME280;47068;55.780;37.520;2022-07-06T08:02:55;99732.31;;;45.10;18.93
61205;BME280;47068;55.780;37.520;2022-07-06T08:05:21;99741.19;;;45.16;19.13
61205;BME280;47068;55.780;37.520;2022-07-06T08:07:46;99732.25;;;45.03;18.55
61205;BME280;47068;55.780;37.520;2022-07-06T08:10:12;99729.34;;;44.27;19.85
61205;BME280;47068;55.780;37.520;2022-07-06T08:12:37;99728.59;;;43.49;20.21
61205;BME280;47068;55.780;37.520;2022-07-06T08:15:05;99722.97;;;41.84;22.82
61205;BME280;47068;55.780;37.520;2022-07-06T08:17:31;99725.25;;;40.82;23.70
61205;BME280;47068;55.780;37.520;2022-07-06T08:19:56;99720.84;;;39.83;24.63
61205;BME280;47068;55.780;37.520;2022-07-06T08:22:22;99712.16;;;38.89;26.37
61205;BME280;47068;55.780;37.520;2022-07-06T08:24:48;99717.91;;;38.07;27.69
61205;BME280;47068;55.780;37.520;2022-07-06T08:27:13;99730.09;;;37.49;28.46
61205;BME280;47068;55.780;37.520;2022-07-06T08:29:39;99713.66;;;36.61;29.77
61205;BME280;47068;55.780;37.520;2022-07-06T08:32:05;99719.28;;;36.23;30.37
61205;BME280;47068;55.780;37.520;2022-07-06T08:34:30;99723.50;;;35.65;31.82
61205;BME280;47068;55.780;37.520;2022-07-06T08:36:56;99729.53;;;35.07;32.61
61205;BME280;47068;55.780;37.520;2022-07-06T08:39:22;99720.50;;;34.41;33.33
61205;BME280;47068;55.780;37.520;2022-07-06T08:41:48;99728.22;;;33.60;34.66
61205;BME280;47068;55.780;37.520;2022-07-06T08:44:15;99707.72;;;32.94;35.38
61205;BME280;47068;55.780;37.520;2022-07-06T08:46:41;99720.75;;;32.53;36.47
61205;BME280;47068;55.780;37.520;2022-07-06T08:49:07;99719.16;;;32.24;37.40
61205;BME280;47068;55.780;37.520;2022-07-06T08:51:35;99723.50;;;31.98;37.83
61205;BME280;47068;55.780;37.520;2022-07-06T08:54:04;99715.53;;;31.50;39.26
61205;BME280;47068;55.780;37.520;2022-07-06T08:56:30;99712.41;;;31.24;39.42
61205;BME280;47068;55.780;37.520;2022-07-06T08:58:58;99725.84;;;30.88;39.99
61205;BME280;47068;55.780;37.520;2022-07-06T09:01:23;99722.72;;;30.76;40.62
61205;BME280;47068;55.780;37.520;2022-07-06T09:03:50;99715.66;;;30.70;41.16
61205;BME280;47068;55.780;37.520;2022-07-06T09:06:16;99722.09;;;30.61;41.77
61205;BME280;47068;55.780;37.520;2022-07-06T09:08:49;99715.72;;;30.65;41.45
61205;BME280;47068;55.780;37.520;2022-07-06T09:11:14;99708.28;;;30.84;40.97
61205;BME280;47068;55.780;37.520;2022-07-06T09:13:40;99713.56;;;31.00;40.74
61205;BME280;47068;55.780;37.520;2022-07-06T09:16:15;99713.22;;;30.87;39.96
61205;BME280;47068;55.780;37.520;2022-07-06T09:18:44;99703.94;;;30.83;40.73
61205;BME280;47068;55.780;37.520;2022-07-06T09:21:10;99707.19;;;30.85;40.49
61205;BME280;47068;55.780;37.520;2022-07-06T09:23:36;99704.88;;;30.74;41.18
61205;BME280;47068;55.780;37.520;2022-07-06T09:26:03;99692.19;;;30.78;41.07
61205;BME280;47068;55.780;37.520;2022-07-06T09:28:41;99702.66;;;30.95;41.34
61205;BME280;47068;55.780;37.520;2022-07-06T09:31:07;99706.13;;;31.00;41.31
61205;BME280;47068;55.780;37.520;2022-07-06T09:33:34;99709.94;;;30.85;41.35
61205;BME280;47068;55.780;37.520;2022-07-06T09:36:00;99711.66;;;30.81;41.88
61205;BME280;47068;55.780;37.520;2022-07-06T09:38:27;99707.06;;;30.77;41.15
61205;BME280;47068;55.780;37.520;2022-07-06T09:40:53;99685.38;;;30.75;41.28
61205;BME280;47068;55.780;37.520;2022-07-06T09:43:20;99702.00;;;30.84;41.33
61205;BME280;47068;55.780;37.520;2022-07-06T09:45:51;99698.13;;;30.66;41.79
61205;BME280;47068;55.780;37.520;2022-07-06T09:48:27;99690.84;;;30.57;41.02
61205;BME280;47068;55.780;37.520;2022-07-06T09:50:55;99680.88;;;30.42;41.08
61205;BME280;47068;55.780;37.520;2022-07-06T09:53:22;99672.81;;;30.27;41.93
61205;BME280;47068;55.780;37.520;2022-07-06T09:55:53;99701.19;;;30.17;41.93
61205;BME280;47068;55.780;37.520;2022-07-06T09:58:20;99699.09;;;30.33;43.28
61205;BME280;47068;55.780;37.520;2022-07-06T10:00:47;99696.63;;;30.31;43.19
61205;BME280;47068;55.780;37.520;2022-07-06T10:03:14;99695.59;;;30.27;42.36
61205;BME280;47068;55.780;37.520;2022-07-06T10:05:43;99696.88;;;30.11;42.43
61205;BME280;47068;55.780;37.520;2022-07-06T10:08:09;99693.41;;;30.05;42.99
61205;BME280;47068;55.780;37.520;2022-07-06T10:10:37;99690.25;;;29.88;43.89
61205;BME280;47068;55.780;37.520;2022-07-06T10:13:03;99685.09;;;29.58;44.05
61205;BME280;47068;55.780;37.520;2022-07-06T10:15:30;99680.13;;;29.60;43.90
61205;BME280;47068;55.780;37.520;2022-07-06T10:17:58;99673.06;;;29.54;44.04
61205;BME280;47068;55.780;37.520;2022-07-06T10:20:25;99682.91;;;29.55;44.21
61205;BME280;47068;55.780;37.520;2022-07-06T10:22:54;99661.59;;;29.47;44.19
61205;BME280;47068;55.780;37.520;2022-07-06T10:25:23;99672.50;;;29.57;44.87
61205;BME280;47068;55.780;37.520;2022-07-06T10:27:49;99663.78;;;29.50;45.69
61205;BME280;47068;55.780;37.520;2022-07-06T10:30:15;99681.28;;;29.54;44.66
61205;BME280;47068;55.780;37.520;2022-07-06T10:32:42;99656.53;;;29.35;44.84
61205;BME280;47068;55.780;37.520;2022-07-06T10:35:09;99674.75;;;29.50;45.15
61205;BME280;47068;55.780;37.520;2022-07-06T10:37:34;99667.56;;;29.54;45.55
61205;BME280;47068;55.780;37.520;2022-07-06T10:40:00;99639.50;;;29.38;44.91
61205;BME280;47068;55.780;37.520;2022-07-06T10:43:04;99658.78;;;29.57;44.87
61205;BME280;47068;55.780;37.520;2022-07-06T10:45:54;99660.63;;;29.66;45.25
61205;BME280;47068;55.780;37.520;2022-07-06T10:48:20;99647.75;;;29.62;46.20
61205;BME280;47068;55.780;37.520;2022-07-06T10:50:55;99654.25;;;29.71;45.27
61205;BME280;47068;55.780;37.520;2022-07-06T10:53:46;99666.78;;;29.77;45.35
61205;BME280;47068;55.780;37.520;2022-07-06T10:59:10;99659.03;;;29.84;45.04
61205;BME280;47068;55.780;37.520;2022-07-06T11:01:36;99631.97;;;29.77;45.08
61205;BME280;47068;55.780;37.520;2022-07-06T11:06:32;99646.75;;;30.05;44.88
61205;BME280;47068;55.780;37.520;2022-07-06T11:09:11;99655.56;;;30.02;44.48
61205;BME280;47068;55.780;37.520;2022-07-06T11:14:12;99655.72;;;29.87;42.67
61205;BME280;47068;55.780;37.520;2022-07-06T11:19:17;99636.94;;;29.99;44.49
61205;BME280;47068;55.780;37.520;2022-07-06T11:24:11;99639.22;;;29.92;43.34
61205;BME280;47068;55.780;37.520;2022-07-06T11:26:37;99623.84;;;29.91;43.25
61205;BME280;47068;55.780;37.520;2022-07-06T11:29:07;99619.59;;;29.80;40.47
61205;BME280;47068;55.780;37.520;2022-07-06T11:31:35;99629.91;;;29.93;40.73
61205;BME280;47068;55.780;37.520;2022-07-06T11:34:03;99632.06;;;29.91;41.58
61205;BME280;47068;55.780;37.520;2022-07-06T11:36:28;99635.09;;;29.90;39.27
61205;BME280;47068;55.780;37.520;2022-07-06T11:38:54;99620.00;;;29.68;42.47
61205;BME280;47068;55.780;37.520;2022-07-06T11:41:19;99617.88;;;29.60;40.71
61205;BME280;47068;55.780;37.520;2022-07-06T11:43:46;99620.63;;;29.60;42.68
61205;BME280;47068;55.780;37.520;2022-07-06T11:48:48;99622.50;;;29.65;42.33
61205;BME280;47068;55.780;37.520;2022-07-06T11:51:14;99617.50;;;29.72;42.49
61205;BME280;47068;55.780;37.520;2022-07-06T11:53:50;99613.88;;;29.76;42.12
61205;BME280;47068;55.780;37.520;2022-07-06T11:56:29;99617.44;;;29.77;42.60
61205;BME280;47068;55.780;37.520;2022-07-06T11:58:58;99613.41;;;29.69;42.82
61205;BME280;47068;55.780;37.520;2022-07-06T12:01:26;99615.38;;;29.88;43.08
61205;BME280;47068;55.780;37.520;2022-07-06T12:03:53;99614.59;;;29.87;43.02
61205;BME280;47068;55.780;37.520;2022-07-06T12:06:23;99608.56;;;29.85;41.18
61205;BME280;47068;55.780;37.520;2022-07-06T12:08:51;99605.94;;;29.75;42.18
61205;BME280;47068;55.780;37.520;2022-07-06T12:11:26;99610.03;;;29.77;39.92
61205;BME280;47068;55.780;37.520;2022-07-06T12:13:58;99594.13;;;29.74;41.07
61205;BME280;47068;55.780;37.520;2022-07-06T12:16:35;99599.22;;;29.86;39.62
61205;BME280;47068;55.780;37.520;2022-07-06T12:19:03;99595.81;;;29.99;39.28
61205;BME280;47068;55.780;37.520;2022-07-06T12:21:29;99593.63;;;29.96;41.08
61205;BME280;47068;55.780;37.520;2022-07-06T12:23:55;99576.75;;;29.84;38.87
61205;BME280;47068;55.780;37.520;2022-07-06T12:26:23;99598.34;;;29.91;40.00
61205;BME280;47068;55.780;37.520;2022-07-06T12:34:21;99592.69;;;29.82;39.82
61205;BME280;47068;55.780;37.520;2022-07-06T12:36:49;99585.53;;;29.86;39.27
61205;BME280;47068;55.780;37.520;2022-07-06T12:39:16;99592.31;;;29.94;40.47
61205;BME280;47068;55.780;37.520;2022-07-06T12:42:02;99575.59;;;29.90;40.79
61205;BME280;47068;55.780;37.520;2022-07-06T12:44:30;99590.34;;;29.94;40.94
61205;BME280;47068;55.780;37.520;2022-07-06T12:47:07;99560.88;;;29.81;40.00
61205;BME280;47068;55.780;37.520;2022-07-06T12:49:34;99580.75;;;29.97;40.96
61205;BME280;47068;55.780;37.520;2022-07-06T12:52:08;99587.13;;;29.92;40.64
61205;BME280;47068;55.780;37.520;2022-07-06T12:54:48;99579.22;;;29.86;40.95
61205;BME280;47068;55.780;37.520;2022-07-06T12:57:21;99592.19;;;29.80;38.91
61205;BME280;47068;55.780;37.520;2022-07-06T13:04:54;99593.63;;;29.72;40.52
61205;BME280;47068;55.780;37.520;2022-07-06T13:07:20;99592.50;;;29.73;39.56
61205;BME280;47068;55.780;37.520;2022-07-06T13:09:45;99591.19;;;29.71;39.92
61205;BME280;47068;55.780;37.520;2022-07-06T13:12:11;99583.25;;;29.69;40.49
61205;BME280;47068;55.780;37.520;2022-07-06T13:14:36;99579.56;;;29.79;40.27
61205;BME280;47068;55.780;37.520;2022-07-06T13:17:02;99584.25;;;29.79;39.69